Time;durP1;ratioP1;P1;durP2;ratioP2;P2;SDS_P1;SDS_P2;PMS_P1;PMS_P2;Temp;Humidity;BMP_temperature;BMP_pressure;BME280_temperature;BME280_humidity;BME280_pressure;Samples;Min_cycle;Max_cycle;Signal;HPM_P1;HPM_P2
2022/04/24 00:01:34;;;;;;;5.17;4.67;;;15.30;53.40;;;;;;5060444;28;20448;-80
2022/04/24 00:04:01;;;;;;;4.43;4.13;;;15.40;53.70;;;;;;5061650;28;21004;-82
2022/04/24 00:06:27;;;;;;;4.43;4.03;;;15.40;54.00;;;;;;5065543;28;20494;-81
2022/04/24 00:08:55;;;;;;;4.80;4.40;;;15.40;53.70;;;;;;5065177;28;20442;-81
2022/04/24 00:11:22;;;;;;;4.73;4.37;;;15.40;53.60;;;;;;5069615;28;20439;-81
2022/04/24 00:13:49;;;;;;;5.00;3.93;;;15.30;53.60;;;;;;5066906;28;20447;-81
2022/04/24 00:16:15;;;;;;;4.13;3.83;;;15.20;53.70;;;;;;5065967;28;20448;-81
2022/04/24 00:18:42;;;;;;;4.63;4.13;;;15.10;54.00;;;;;;5066473;28;20487;-80
2022/04/24 00:21:09;;;;;;;3.83;3.53;;;15.10;54.10;;;;;;5047508;28;20488;-82
2022/04/24 00:23:35;;;;;;;5.00;4.60;;;15.20;54.40;;;;;;5062211;28;20447;-81
2022/04/24 00:26:02;;;;;;;4.77;4.27;;;15.10;54.70;;;;;;5062950;28;20484;-82
2022/04/24 00:28:29;;;;;;;4.47;4.07;;;15.10;54.40;;;;;;5058720;28;20457;-82
2022/04/24 00:30:56;;;;;;;5.00;4.50;;;15.10;54.70;;;;;;5064202;28;20552;-81
2022/04/24 00:33:22;;;;;;;5.03;4.57;;;15.10;54.50;;;;;;5064460;28;20456;-81
2022/04/24 00:35:49;;;;;;;4.60;4.30;;;15.00;54.60;;;;;;5047251;28;20464;-82
2022/04/24 00:38:16;;;;;;;5.87;5.37;;;15.10;55.10;;;;;;5047895;28;20474;-80
2022/04/24 00:40:46;;;;;;;4.43;4.13;;;15.00;55.10;;;;;;5035342;28;20476;-82
2022/04/24 00:43:14;;;;;;;4.87;4.57;;;15.10;55.20;;;;;;5044234;28;20451;-82
2022/04/24 00:45:41;;;;;;;4.60;4.20;;;15.00;55.40;;;;;;5042204;28;20448;-80
2022/04/24 00:48:07;;;;;;;5.17;4.67;;;15.00;55.20;;;;;;5059791;28;20452;-81
2022/04/24 00:50:46;;;;;;;4.33;3.93;;;15.00;55.10;;;;;;5057223;28;21053;-79
2022/04/24 00:53:13;;;;;;;5.70;4.47;;;15.00;55.30;;;;;;5058834;28;20458;-80
2022/04/24 00:55:42;;;;;;;4.60;4.20;;;15.10;55.10;;;;;;5055078;28;20457;-81
2022/04/24 00:58:10;;;;;;;4.63;4.27;;;15.10;55.10;;;;;;5039232;28;20456;-81
2022/04/24 01:00:38;;;;;;;4.90;4.50;;;15.20;55.00;;;;;;5039762;28;20479;-81
2022/04/24 01:03:05;;;;;;;5.83;5.23;;;15.10;55.10;;;;;;5058465;28;20476;-81
2022/04/24 01:05:31;;;;;;;5.00;4.60;;;15.00;55.20;;;;;;5055525;28;20490;-80
2022/04/24 01:07:58;;;;;;;4.70;4.37;;;15.00;55.40;;;;;;5059628;28;20484;-80
2022/04/24 01:10:25;;;;;;;4.50;4.20;;;14.90;55.30;;;;;;5061886;28;20464;-80
2022/04/24 01:12:51;;;;;;;4.90;4.50;;;14.90;55.40;;;;;;5055164;28;20453;-80
2022/04/24 01:15:18;;;;;;;4.60;4.30;;;14.80;55.50;;;;;;5053742;28;20462;-79
2022/04/24 01:17:45;;;;;;;5.53;4.70;;;14.80;56.00;;;;;;5061765;28;20536;-80
2022/04/24 01:20:13;;;;;;;6.90;4.17;;;14.80;56.20;;;;;;5060206;28;20464;-80
2022/04/24 01:22:40;;;;;;;4.53;4.23;;;14.80;56.50;;;;;;5062282;28;20429;-81
2022/04/24 01:25:06;;;;;;;5.00;4.60;;;14.80;56.50;;;;;;5046117;28;20459;-81
2022/04/24 01:27:33;;;;;;;5.17;4.87;;;14.90;56.30;;;;;;5055692;28;20507;-81
2022/04/24 01:30:00;;;;;;;4.67;4.37;;;14.80;55.80;;;;;;5059495;28;20464;-81
2022/04/24 01:32:26;;;;;;;5.40;4.90;;;14.90;55.50;;;;;;5064749;28;20486;-80
2022/04/24 01:34:53;;;;;;;5.20;4.70;;;15.00;55.30;;;;;;5050395;28;20454;-81
2022/04/24 01:37:19;;;;;;;5.63;5.23;;;14.80;55.20;;;;;;5069065;28;20870;-80
2022/04/24 01:39:46;;;;;;;4.60;4.23;;;14.80;55.30;;;;;;5068150;28;20477;-80
2022/04/24 01:42:13;;;;;;;5.07;4.67;;;14.90;55.50;;;;;;5067261;28;21077;-80
2022/04/24 01:44:39;;;;;;;5.33;4.93;;;14.80;55.30;;;;;;5066285;28;20436;-81
2022/04/24 01:47:08;;;;;;;5.40;4.90;;;14.70;55.30;;;;;;5068678;28;20491;-81
2022/04/24 01:49:34;;;;;;;5.50;5.10;;;14.70;55.30;;;;;;5069815;28;20502;-80
2022/04/24 01:52:01;;;;;;;4.77;4.47;;;14.60;55.20;;;;;;5068123;28;20483;-81
2022/04/24 01:54:28;;;;;;;5.20;4.70;;;14.50;55.20;;;;;;5050152;28;20895;-81
2022/04/24 01:56:54;;;;;;;5.50;5.10;;;14.60;55.60;;;;;;5066292;28;20460;-81
2022/04/24 01:59:21;;;;;;;6.67;5.40;;;14.60;55.60;;;;;;5053030;28;20562;-79
2022/04/24 02:01:48;;;;;;;7.57;5.27;;;14.70;55.50;;;;;;5045888;28;20459;-80
2022/04/24 02:04:14;;;;;;;5.90;5.50;;;14.60;55.60;;;;;;5051690;28;20469;-81
2022/04/24 02:06:41;;;;;;;5.53;5.03;;;14.70;55.70;;;;;;5046840;28;20487;-81
2022/04/24 02:09:08;;;;;;;5.47;5.07;;;14.60;55.80;;;;;;5050719;28;20959;-80
2022/04/24 02:11:35;;;;;;;6.03;5.53;;;14.60;55.50;;;;;;5053489;28;20440;-80
2022/04/24 02:14:01;;;;;;;5.77;5.37;;;14.60;55.70;;;;;;5049197;28;20983;-80
2022/04/24 02:16:28;;;;;;;5.07;4.67;;;14.50;56.20;;;;;;5046422;28;20464;-82
2022/04/24 02:18:55;;;;;;;6.07;5.57;;;14.60;56.50;;;;;;5049939;28;20504;-81
2022/04/24 02:21:21;;;;;;;5.97;5.47;;;14.60;55.90;;;;;;5046067;28;20506;-82
2022/04/24 02:23:51;;;;;;;5.83;5.43;;;14.50;56.20;;;;;;5049269;28;20841;-79
2022/04/24 02:26:18;;;;;;;5.70;5.20;;;14.40;56.50;;;;;;5033349;28;20494;-80
2022/04/24 02:28:44;;;;;;;5.50;5.10;;;14.50;56.60;;;;;;5034379;28;20479;-81
2022/04/24 02:31:11;;;;;;;5.50;5.10;;;14.40;56.50;;;;;;5032664;28;20475;-80
2022/04/24 02:33:38;;;;;;;5.27;4.87;;;14.40;56.50;;;;;;5033626;28;20486;-81
2022/04/24 02:36:04;;;;;;;5.93;5.43;;;14.40;56.40;;;;;;5045975;28;20464;-81
2022/04/24 02:38:31;;;;;;;5.37;5.00;;;14.40;56.50;;;;;;5032784;28;20471;-80
2022/04/24 02:40:58;;;;;;;5.07;4.67;;;14.40;56.50;;;;;;5055428;28;20472;-81
2022/04/24 02:43:25;;;;;;;6.47;6.00;;;14.40;56.50;;;;;;5061303;28;20466;-81
2022/04/24 02:45:52;;;;;;;6.10;5.60;;;14.50;56.60;;;;;;5062025;28;20464;-81
2022/04/24 02:48:18;;;;;;;5.00;4.60;;;14.50;56.40;;;;;;5062971;28;20484;-81
2022/04/24 02:50:45;;;;;;;5.10;4.70;;;14.30;56.40;;;;;;5063544;28;20502;-80
2022/04/24 02:53:12;;;;;;;5.37;4.97;;;14.40;56.70;;;;;;5063513;28;20455;-79
2022/04/24 02:55:38;;;;;;;5.03;4.63;;;14.40;56.80;;;;;;5063326;28;20469;-80
2022/04/24 02:58:05;;;;;;;5.43;4.93;;;14.30;56.80;;;;;;5061330;28;20549;-81
2022/04/24 03:00:49;;;;;;;4.60;4.30;;;14.30;56.90;;;;;;5055721;28;20481;-78
2022/04/24 03:03:18;;;;;;;4.87;4.47;;;14.30;56.80;;;;;;5063551;28;20477;-80
2022/04/24 03:05:49;;;;;;;5.37;4.90;;;14.30;56.70;;;;;;5063509;28;20463;-80
2022/04/24 03:08:18;;;;;;;5.20;4.80;;;14.20;56.80;;;;;;5065428;28;20483;-81
2022/04/24 03:10:45;;;;;;;6.57;6.07;;;14.20;57.00;;;;;;5049797;28;20452;-81
2022/04/24 03:13:12;;;;;;;5.30;4.90;;;14.20;57.00;;;;;;5063803;28;20435;-81
2022/04/24 03:15:39;;;;;;;5.37;4.87;;;14.20;57.10;;;;;;5056169;28;20464;-81
2022/04/24 03:18:06;;;;;;;5.60;5.20;;;14.20;57.30;;;;;;5034607;28;21759;-81
2022/04/24 03:20:33;;;;;;;5.60;5.20;;;14.40;57.20;;;;;;5050763;28;20844;-81
2022/04/24 03:22:59;;;;;;;5.60;5.17;;;14.40;57.00;;;;;;5053292;28;20441;-81
2022/04/24 03:25:26;;;;;;;5.30;4.80;;;14.30;56.90;;;;;;5060192;28;20443;-80
2022/04/24 03:27:53;;;;;;;5.30;4.93;;;14.30;56.70;;;;;;5064008;28;20551;-80
2022/04/24 03:30:19;;;;;;;5.30;4.90;;;14.30;56.70;;;;;;5067897;28;21065;-80
2022/04/24 03:32:46;;;;;;;6.00;5.60;;;14.20;56.70;;;;;;5067960;28;20449;-80
2022/04/24 03:35:13;;;;;;;5.87;5.00;;;14.20;56.90;;;;;;5071550;28;20444;-81
2022/04/24 03:37:41;;;;;;;5.63;5.23;;;14.00;57.50;;;;;;5073976;28;20471;-80
2022/04/24 03:40:08;;;;;;;5.53;5.13;;;14.00;57.70;;;;;;5077021;28;20459;-80
2022/04/24 03:42:36;;;;;;;5.90;5.50;;;14.10;57.50;;;;;;5054602;28;20455;-79
2022/04/24 03:45:06;;;;;;;5.67;5.10;;;14.20;57.30;;;;;;5049809;28;20448;-80
2022/04/24 03:47:33;;;;;;;5.23;4.83;;;14.00;57.20;;;;;;5074924;28;20480;-78
2022/04/24 03:49:59;;;;;;;5.20;4.80;;;13.90;57.50;;;;;;5072555;28;20466;-81
2022/04/24 03:52:26;;;;;;;8.77;5.73;;;13.90;57.90;;;;;;5069946;28;20440;-81
2022/04/24 03:54:53;;;;;;;6.43;5.93;;;14.10;58.00;;;;;;5071737;28;20444;-80
2022/04/24 03:57:19;;;;;;;5.50;5.10;;;13.90;57.50;;;;;;5059633;28;20452;-80
2022/04/24 03:59:46;;;;;;;6.17;5.67;;;13.90;57.80;;;;;;5053655;28;20482;-81
2022/04/24 04:02:13;;;;;;;6.00;5.40;;;13.90;57.70;;;;;;5054873;28;20452;-80
2022/04/24 04:04:40;;;;;;;6.10;5.50;;;13.80;57.90;;;;;;5059680;28;20504;-80
2022/04/24 04:07:07;;;;;;;5.97;5.57;;;13.70;58.00;;;;;;5050656;28;20574;-80
2022/04/24 04:09:34;;;;;;;5.70;5.30;;;13.70;58.40;;;;;;5034907;28;20460;-80
2022/04/24 04:12:01;;;;;;;5.30;4.90;;;13.70;58.50;;;;;;5053479;28;20467;-79
2022/04/24 04:14:28;;;;;;;6.40;5.90;;;13.70;58.60;;;;;;5048963;28;20456;-81
2022/04/24 04:16:54;;;;;;;6.50;6.00;;;13.80;58.30;;;;;;5047948;28;20457;-80
2022/04/24 04:19:21;;;;;;;6.00;5.50;;;13.70;58.10;;;;;;5055686;28;20506;-80
2022/04/24 04:21:48;;;;;;;5.37;4.97;;;13.70;58.50;;;;;;5054408;28;20464;-80
2022/04/24 04:24:15;;;;;;;5.97;5.10;;;13.70;58.60;;;;;;5055048;28;20462;-81
2022/04/24 04:26:42;;;;;;;6.37;5.77;;;13.90;58.70;;;;;;5051036;28;20463;-82
2022/04/24 04:29:09;;;;;;;6.73;6.20;;;14.00;58.50;;;;;;5052904;28;20542;-81
2022/04/24 04:31:36;;;;;;;8.40;6.30;;;14.00;58.20;;;;;;5036392;28;20448;-81
2022/04/24 04:34:02;;;;;;;7.10;6.50;;;14.00;58.40;;;;;;5036300;28;20452;-81
2022/04/24 04:36:29;;;;;;;5.77;5.33;;;14.00;58.50;;;;;;5047947;28;20894;-81
2022/04/24 04:38:56;;;;;;;5.77;5.37;;;13.80;58.70;;;;;;5049683;28;20820;-82
2022/04/24 04:41:23;;;;;;;5.90;5.40;;;13.70;59.10;;;;;;5057721;28;20455;-80
2022/04/24 04:43:50;;;;;;;6.70;6.10;;;13.90;58.90;;;;;;5052955;28;20464;-80
2022/04/24 04:46:17;;;;;;;6.17;5.70;;;13.90;58.40;;;;;;5035112;28;20452;-80
2022/04/24 04:48:43;;;;;;;6.47;5.87;;;13.70;58.50;;;;;;5054633;28;21596;-81
2022/04/24 04:51:10;;;;;;;6.37;5.77;;;13.60;58.80;;;;;;5039676;28;20471;-81
2022/04/24 04:53:37;;;;;;;5.93;5.53;;;13.50;58.80;;;;;;5056079;28;20462;-81
2022/04/24 04:56:04;;;;;;;6.13;5.63;;;13.90;58.80;;;;;;5039044;28;20464;-81
2022/04/24 04:58:30;;;;;;;5.63;5.13;;;14.00;58.40;;;;;;5056910;28;20459;-81
2022/04/24 05:00:59;;;;;;;6.83;6.20;;;13.80;58.50;;;;;;5057127;28;21064;-80
2022/04/24 05:03:26;;;;;;;5.93;5.50;;;13.70;58.90;;;;;;5057153;28;20468;-81
2022/04/24 05:05:53;;;;;;;6.53;6.00;;;13.70;59.40;;;;;;5061036;28;20479;-81
2022/04/24 05:08:19;;;;;;;7.13;6.53;;;13.90;59.40;;;;;;5056164;28;20890;-82
2022/04/24 05:10:46;;;;;;;6.90;6.30;;;13.90;58.90;;;;;;5052998;28;20486;-80
2022/04/24 05:13:13;;;;;;;6.83;6.27;;;13.90;58.80;;;;;;5053459;28;20950;-77
2022/04/24 05:15:40;;;;;;;6.30;5.80;;;13.90;59.30;;;;;;5055374;28;20823;-81
2022/04/24 05:18:07;;;;;;;6.87;6.27;;;13.80;59.10;;;;;;5055094;28;20451;-80
2022/04/24 05:20:34;;;;;;;6.17;5.57;;;13.80;59.10;;;;;;5053690;28;20480;-81
2022/04/24 05:23:06;;;;;;;7.07;6.57;;;13.90;59.30;;;;;;5058809;28;20482;-82
2022/04/24 05:25:33;;;;;;;6.60;6.00;;;13.80;59.40;;;;;;5056309;28;20447;-82
2022/04/24 05:28:01;;;;;;;8.73;7.67;;;13.80;59.30;;;;;;5051138;28;20494;-79
2022/04/24 05:30:29;;;;;;;8.50;7.23;;;13.90;59.10;;;;;;5053075;28;21139;-82
2022/04/24 05:32:57;;;;;;;8.53;7.03;;;13.90;59.30;;;;;;5051260;28;20518;-81
2022/04/24 05:35:24;;;;;;;10.60;7.00;;;13.90;59.50;;;;;;5053405;28;20444;-81
2022/04/24 05:37:51;;;;;;;6.67;6.17;;;13.90;58.90;;;;;;5059745;28;20507;-81
2022/04/24 05:40:18;;;;;;;7.00;6.50;;;13.90;59.00;;;;;;5061040;28;20478;-78
2022/04/24 05:42:53;;;;;;;6.50;6.00;;;13.80;59.10;;;;;;5060354;28;20499;-81
2022/04/24 05:45:27;;;;;;;7.07;6.33;;;14.10;59.40;;;;;;5039132;28;20427;-80
2022/04/24 05:47:54;;;;;;;8.23;7.53;;;14.00;59.10;;;;;;5037946;28;20476;-81
2022/04/24 05:50:23;;;;;;;8.00;6.30;;;13.90;59.20;;;;;;5050844;28;22210;-81
2022/04/24 05:52:52;;;;;;;8.00;7.20;;;14.20;58.90;;;;;;5037139;28;20515;-81
2022/04/24 05:55:19;;;;;;;7.73;7.10;;;14.20;58.10;;;;;;5056711;28;20468;-81
2022/04/24 05:57:45;;;;;;;7.43;6.93;;;14.10;58.20;;;;;;5049809;28;20479;-81
2022/04/24 06:00:12;;;;;;;7.00;6.50;;;14.20;58.30;;;;;;5030661;28;20479;-81
2022/04/24 06:02:40;;;;;;;7.70;7.17;;;14.10;58.50;;;;;;5050525;28;20456;-81
2022/04/24 06:05:08;;;;;;;8.23;7.53;;;14.10;58.50;;;;;;5050501;28;20490;-81
2022/04/24 06:07:34;;;;;;;6.90;6.40;;;14.70;57.90;;;;;;5049548;28;20513;-82
2022/04/24 06:10:01;;;;;;;7.40;6.80;;;14.80;57.70;;;;;;5046894;28;20469;-82
2022/04/24 06:12:28;;;;;;;7.60;6.90;;;14.90;57.40;;;;;;5055662;28;20444;-81
2022/04/24 06:14:54;;;;;;;7.10;6.60;;;15.20;56.90;;;;;;5050543;28;20449;-80
2022/04/24 06:17:21;;;;;;;7.40;6.80;;;15.50;56.10;;;;;;5051832;28;20451;-81
2022/04/24 06:19:47;;;;;;;7.53;6.93;;;16.00;55.50;;;;;;5047206;28;20503;-81
2022/04/24 06:22:14;;;;;;;7.27;6.77;;;16.00;55.00;;;;;;5034618;28;20466;-80
2022/04/24 06:24:41;;;;;;;7.07;6.57;;;16.70;54.00;;;;;;5037479;28;20459;-82
2022/04/24 06:27:08;;;;;;;7.30;6.70;;;16.60;53.10;;;;;;5049179;28;20460;-82
2022/04/24 06:29:34;;;;;;;7.70;7.10;;;16.50;53.80;;;;;;5049965;28;20485;-79
2022/04/24 06:32:04;;;;;;;7.00;6.50;;;16.70;53.80;;;;;;5052010;28;20506;-80
2022/04/24 06:34:31;;;;;;;7.90;7.30;;;16.60;53.90;;;;;;5049989;28;20482;-80
2022/04/24 06:36:58;;;;;;;7.80;7.20;;;16.60;54.00;;;;;;5049278;28;20457;-81
2022/04/24 06:39:24;;;;;;;7.30;6.70;;;16.20;54.10;;;;;;5048450;28;20468;-81
2022/04/24 06:41:51;;;;;;;7.90;7.30;;;16.00;54.70;;;;;;5047206;28;20455;-81
2022/04/24 06:44:18;;;;;;;7.23;6.63;;;16.00;55.00;;;;;;5029638;28;20449;-82
2022/04/24 06:46:46;;;;;;;7.30;6.70;;;16.20;54.50;;;;;;5053991;28;20452;-81
2022/04/24 06:49:13;;;;;;;7.30;6.70;;;16.10;54.50;;;;;;5050104;28;20488;-80
2022/04/24 06:51:40;;;;;;;7.07;6.57;;;16.10;54.90;;;;;;5047875;28;20536;-80
2022/04/24 06:54:06;;;;;;;7.47;6.87;;;16.60;53.90;;;;;;5052088;28;20727;-81
2022/04/24 06:56:33;;;;;;;7.40;6.77;;;16.50;54.10;;;;;;5050884;28;20467;-81
2022/04/24 06:59:00;;;;;;;8.40;7.70;;;16.40;53.60;;;;;;5052764;28;20455;-82
2022/04/24 07:01:26;;;;;;;7.37;6.87;;;16.30;53.40;;;;;;5049720;28;20464;-80
2022/04/24 07:03:53;;;;;;;7.70;7.20;;;16.00;54.30;;;;;;5052349;28;20482;-79
2022/04/24 07:06:22;;;;;;;7.63;6.97;;;15.70;54.60;;;;;;5047163;28;20459;-82
2022/04/24 07:08:49;;;;;;;7.53;6.90;;;15.70;55.00;;;;;;5051398;28;20494;-81
2022/04/24 07:11:15;;;;;;;7.30;6.70;;;15.40;55.40;;;;;;5050180;28;20480;-81
2022/04/24 07:13:42;;;;;;;7.17;6.67;;;15.30;56.00;;;;;;5047410;28;20449;-81
2022/04/24 07:16:09;;;;;;;7.70;7.03;;;15.30;56.70;;;;;;5051078;28;22146;-82
2022/04/24 07:18:35;;;;;;;7.80;7.20;;;16.00;55.80;;;;;;5051148;28;20516;-81
2022/04/24 07:21:02;;;;;;;7.57;6.87;;;16.30;55.10;;;;;;5047906;28;20492;-81
2022/04/24 07:23:30;;;;;;;7.53;6.90;;;16.20;54.70;;;;;;5069027;28;20507;-79
2022/04/24 07:25:56;;;;;;;7.97;7.30;;;16.30;54.40;;;;;;5059536;28;20449;-81
2022/04/24 07:28:23;;;;;;;7.47;6.87;;;16.30;54.60;;;;;;5065500;28;20480;-80
2022/04/24 07:30:50;;;;;;;7.40;6.80;;;16.10;54.80;;;;;;5072117;28;20542;-80
2022/04/24 07:33:17;;;;;;;7.90;7.20;;;16.20;55.30;;;;;;5069915;28;20436;-83
2022/04/24 07:35:43;;;;;;;7.57;6.93;;;16.00;55.20;;;;;;5039737;28;20460;-81
2022/04/24 07:38:10;;;;;;;7.70;7.00;;;16.30;55.20;;;;;;5061467;28;20467;-81
2022/04/24 07:40:39;;;;;;;8.20;7.60;;;16.20;54.70;;;;;;5056077;28;20490;-79
2022/04/24 07:43:08;;;;;;;7.43;6.83;;;16.20;54.90;;;;;;5057318;28;21016;-78
2022/04/24 07:45:37;;;;;;;7.60;7.00;;;16.30;55.60;;;;;;5039648;28;20774;-81
2022/04/24 07:48:08;;;;;;;8.00;7.30;;;16.10;55.20;;;;;;5049293;28;20452;-81
2022/04/24 07:50:43;;;;;;;7.83;7.13;;;15.80;55.60;;;;;;5065547;28;21089;-81
2022/04/24 07:53:11;;;;;;;8.07;7.47;;;15.80;55.80;;;;;;5054409;28;21643;-80
2022/04/24 07:55:41;;;;;;;7.70;7.00;;;16.30;55.20;;;;;;5056181;28;20487;-79
2022/04/24 07:58:08;;;;;;;8.30;7.37;;;16.40;54.50;;;;;;5052659;28;20534;-80
2022/04/24 08:00:35;;;;;;;8.00;7.27;;;16.40;54.40;;;;;;5050364;28;21005;-81
2022/04/24 08:03:07;;;;;;;7.83;7.10;;;16.50;54.10;;;;;;5035933;28;20458;-80
2022/04/24 08:05:40;;;;;;;7.60;7.00;;;16.40;54.40;;;;;;5033326;28;20492;-82
2022/04/24 08:08:09;;;;;;;7.10;6.60;;;16.70;54.10;;;;;;5039164;28;20609;-79
2022/04/24 08:10:41;;;;;;;7.20;6.63;;;16.50;54.30;;;;;;5058704;28;20569;-80
2022/04/24 08:13:08;;;;;;;7.07;6.47;;;16.40;54.50;;;;;;5039523;28;20444;-81
2022/04/24 08:15:40;;;;;;;8.10;7.40;;;16.80;54.30;;;;;;5042852;28;20456;-80
2022/04/24 08:18:07;;;;;;;7.67;7.07;;;16.80;54.30;;;;;;5045178;28;20731;-80
2022/04/24 08:20:36;;;;;;;7.43;6.83;;;17.00;54.10;;;;;;5046312;28;20464;-81
2022/04/24 08:23:04;;;;;;;8.53;7.80;;;17.10;53.40;;;;;;5061194;28;20479;-80
2022/04/24 08:25:34;;;;;;;7.83;7.33;;;17.20;53.10;;;;;;5063601;28;20444;-78
2022/04/24 08:28:06;;;;;;;7.80;6.87;;;17.30;52.90;;;;;;5044006;28;21572;-81
2022/04/24 08:30:35;;;;;;;7.43;6.80;;;17.30;53.40;;;;;;5059416;28;20492;-81
2022/04/24 08:33:02;;;;;;;8.20;7.50;;;17.30;52.80;;;;;;5058912;28;20461;-82
2022/04/24 08:35:29;;;;;;;7.40;6.80;;;17.50;52.70;;;;;;5040419;28;20486;-80
2022/04/24 08:37:55;;;;;;;8.13;7.50;;;17.90;51.90;;;;;;5060931;28;20452;-80
2022/04/24 08:40:24;;;;;;;7.33;6.70;;;17.90;51.60;;;;;;5058598;28;20487;-80
2022/04/24 08:42:52;;;;;;;7.23;6.63;;;18.10;51.70;;;;;;5041053;28;20456;-80
2022/04/24 08:45:25;;;;;;;7.63;6.93;;;18.40;51.60;;;;;;5063537;28;20462;-81
2022/04/24 08:47:52;;;;;;;8.00;7.40;;;18.80;50.90;;;;;;5059732;28;20451;-81
2022/04/24 08:50:20;;;;;;;7.97;7.20;;;18.90;50.00;;;;;;5043436;28;20471;-81
2022/04/24 08:52:48;;;;;;;7.90;7.30;;;18.40;50.00;;;;;;5057944;28;20448;-81
2022/04/24 08:55:15;;;;;;;8.47;7.37;;;18.50;50.60;;;;;;5059872;28;20465;-81
2022/04/24 08:57:42;;;;;;;8.80;7.73;;;18.90;50.20;;;;;;5061459;28;20448;-80
2022/04/24 09:00:11;;;;;;;9.63;8.83;;;18.90;49.90;;;;;;5064026;28;20463;-79
2022/04/24 09:02:50;;;;;;;7.47;6.90;;;19.10;49.80;;;;;;5062667;28;20452;-80
2022/04/24 09:05:17;;;;;;;7.13;6.63;;;19.20;49.50;;;;;;5060473;28;20535;-81
2022/04/24 09:07:45;;;;;;;7.80;7.10;;;19.50;49.50;;;;;;5042278;28;20486;-81
2022/04/24 09:10:33;;;;;;;7.13;6.63;;;20.20;48.50;;;;;;5045833;28;22012;-80
2022/04/24 09:13:03;;;;;;;8.60;8.00;;;19.80;48.20;;;;;;5062628;28;20436;-81
2022/04/24 09:15:32;;;;;;;8.50;7.80;;;20.00;48.50;;;;;;5062199;28;20447;-80
2022/04/24 09:18:01;;;;;;;8.33;7.63;;;20.30;47.70;;;;;;5061879;28;20890;-78
2022/04/24 09:20:41;;;;;;;8.47;7.77;;;20.20;47.60;;;;;;5062116;28;20503;-80
2022/04/24 09:23:10;;;;;;;8.53;7.73;;;19.90;48.10;;;;;;5058827;28;20447;-80
2022/04/24 09:25:38;;;;;;;7.47;6.93;;;20.10;48.30;;;;;;5056112;28;20464;-81
2022/04/24 09:28:05;;;;;;;8.90;8.10;;;20.00;48.90;;;;;;5057000;28;20491;-80
2022/04/24 09:30:35;;;;;;;8.63;7.93;;;21.50;48.20;;;;;;5060066;28;20852;-80
2022/04/24 09:33:06;;;;;;;7.00;6.50;;;22.00;45.90;;;;;;5043118;28;20448;-80
2022/04/24 09:35:36;;;;;;;7.87;7.10;;;22.30;45.60;;;;;;5038678;28;20460;-79
2022/04/24 09:38:17;;;;;;;6.90;6.40;;;22.90;44.10;;;;;;5055655;28;20476;-81
2022/04/24 09:40:48;;;;;;;8.27;7.40;;;24.00;42.50;;;;;;5039591;28;20483;-81
2022/04/24 09:43:18;;;;;;;8.43;7.73;;;25.40;41.00;;;;;;5057045;28;20445;-80
2022/04/24 09:45:56;;;;;;;7.67;6.97;;;25.20;39.30;;;;;;5058291;28;20447;-80
2022/04/24 09:48:25;;;;;;;8.63;8.03;;;24.30;40.50;;;;;;5027854;28;20538;-80
2022/04/24 09:50:54;;;;;;;7.43;6.83;;;24.00;40.60;;;;;;5054432;28;20954;-79
2022/04/24 09:53:21;;;;;;;7.50;6.90;;;23.60;42.00;;;;;;5041762;28;20439;-81
2022/04/24 09:55:49;;;;;;;8.40;7.73;;;23.50;41.60;;;;;;5040568;28;20451;-80
2022/04/24 09:58:19;;;;;;;7.90;7.10;;;22.90;42.30;;;;;;5055730;28;20469;-80
2022/04/24 10:00:51;;;;;;;8.60;7.90;;;22.30;43.30;;;;;;5040229;28;20545;-80
2022/04/24 10:03:22;;;;;;;8.50;7.80;;;22.00;44.10;;;;;;5039056;28;20456;-80
2022/04/24 10:05:49;;;;;;;8.50;7.90;;;21.90;44.50;;;;;;5060540;28;20451;-81
2022/04/24 10:08:26;;;;;;;7.90;7.30;;;21.70;44.60;;;;;;5063458;28;20467;-80
2022/04/24 10:10:52;;;;;;;7.97;7.33;;;20.80;44.80;;;;;;5063530;28;20475;-82
2022/04/24 10:13:23;;;;;;;7.47;6.87;;;20.40;46.70;;;;;;5065020;28;20461;-80
2022/04/24 10:16:15;;;;;;;8.80;7.77;;;20.50;47.10;;;;;;5071534;28;20452;-81
2022/04/24 10:19:27;;;;;;;7.87;7.07;;;20.30;46.80;;;;;;5071538;28;20448;-81
2022/04/24 10:22:25;;;;;;;8.40;7.70;;;20.30;47.40;;;;;;5048082;28;21122;-80
2022/04/24 10:25:03;;;;;;;7.40;6.90;;;20.00;47.50;;;;;;5041292;28;20463;-79
2022/04/24 10:27:56;;;;;;;8.70;8.00;;;19.90;47.60;;;;;;5063311;28;20462;-79
2022/04/24 10:30:25;;;;;;;7.90;7.40;;;20.10;48.00;;;;;;5056665;28;20498;-80
2022/04/24 10:33:24;;;;;;;8.40;7.70;;;21.20;46.90;;;;;;5036527;28;20467;-80
2022/04/24 10:35:59;;;;;;;8.10;7.40;;;21.20;45.80;;;;;;5040903;28;20456;-80
2022/04/24 10:38:28;;;;;;;8.50;7.80;;;20.80;47.00;;;;;;5060578;28;21117;-81
2022/04/24 10:41:14;;;;;;;8.10;7.50;;;20.80;47.20;;;;;;5061622;28;20478;-82
2022/04/24 10:43:46;;;;;;;8.00;7.40;;;20.40;46.80;;;;;;5059002;28;20468;-82
2022/04/24 10:46:29;;;;;;;8.30;7.50;;;20.70;47.20;;;;;;5059344;28;20488;-81
2022/04/24 10:49:10;;;;;;;7.00;6.50;;;21.60;46.20;;;;;;5059394;28;20477;-80
2022/04/24 10:51:40;;;;;;;7.80;7.20;;;22.70;44.60;;;;;;5066020;28;20448;-79
2022/04/24 10:54:13;;;;;;;8.03;7.30;;;23.60;42.90;;;;;;5063633;28;20446;-80
2022/04/24 10:56:51;;;;;;;6.70;6.20;;;24.00;40.40;;;;;;5050795;28;20448;-80
2022/04/24 10:59:20;;;;;;;7.27;6.67;;;23.10;41.10;;;;;;5069173;28;20440;-79
2022/04/24 11:01:55;;;;;;;7.90;7.30;;;22.70;42.00;;;;;;5070144;28;20486;-81
2022/04/24 11:04:25;;;;;;;8.80;8.20;;;22.30;42.60;;;;;;5067735;28;20502;-80
2022/04/24 11:07:00;;;;;;;7.73;7.03;;;22.20;43.00;;;;;;5070530;28;20436;-81
2022/04/24 11:09:32;;;;;;;7.97;7.37;;;22.00;43.50;;;;;;5071092;28;20488;-81
2022/04/24 11:12:06;;;;;;;9.53;8.73;;;22.00;44.30;;;;;;5069834;28;20415;-81
2022/04/24 11:14:36;;;;;;;8.00;7.40;;;21.70;44.90;;;;;;5072640;28;20470;-81
2022/04/24 11:17:05;;;;;;;7.90;7.30;;;21.30;44.50;;;;;;5074738;28;20467;-81
2022/04/24 11:19:37;;;;;;;8.43;7.63;;;21.30;44.00;;;;;;5061602;28;20461;-78
2022/04/24 11:22:07;;;;;;;7.90;7.30;;;21.50;44.10;;;;;;5058678;28;20469;-80
2022/04/24 11:24:37;;;;;;;8.47;7.87;;;21.20;44.70;;;;;;5060729;28;21645;-80
2022/04/24 11:27:14;;;;;;;7.87;7.23;;;21.20;44.70;;;;;;5064123;28;20462;-82
2022/04/24 11:29:44;;;;;;;7.90;7.40;;;21.90;44.90;;;;;;5065388;28;20479;-81
2022/04/24 11:32:13;;;;;;;7.30;6.80;;;22.10;43.30;;;;;;5048000;28;20512;-81
2022/04/24 11:34:40;;;;;;;7.83;7.13;;;22.60;43.40;;;;;;5065114;28;20496;-80
2022/04/24 11:37:10;;;;;;;7.33;6.83;;;23.00;42.70;;;;;;5046689;28;20453;-80
2022/04/24 11:39:40;;;;;;;7.93;7.20;;;23.00;42.20;;;;;;5063455;28;20706;-82
2022/04/24 11:42:10;;;;;;;7.70;7.17;;;22.50;43.10;;;;;;5045034;28;20503;-80
2022/04/24 11:50:15;;;;;;;8.17;7.10;;;21.30;43.90;;;;;;5061951;28;20506;-79
2022/04/24 11:53:04;;;;;;;7.60;7.10;;;20.80;45.10;;;;;;5057613;28;20468;-78
2022/04/24 11:58:17;;;;;;;11.20;10.17;;;21.00;45.00;;;;;;5058748;28;20456;-80
2022/04/24 12:00:45;;;;;;;8.27;7.47;;;22.50;44.00;;;;;;5062014;28;20463;-81
2022/04/24 12:03:13;;;;;;;8.20;7.50;;;22.70;42.40;;;;;;5074610;28;20511;-81
2022/04/24 12:05:41;;;;;;;7.83;7.23;;;22.30;42.30;;;;;;5054705;28;20478;-80
2022/04/24 12:08:11;;;;;;;6.87;6.43;;;21.80;42.80;;;;;;5053035;28;20459;-81
2022/04/24 12:10:46;;;;;;;7.03;6.53;;;21.60;43.20;;;;;;5048300;28;20525;-80
2022/04/24 12:13:13;;;;;;;7.50;6.90;;;21.50;43.90;;;;;;5045623;28;21027;-80
2022/04/24 12:15:52;;;;;;;7.37;6.70;;;21.50;44.80;;;;;;5062723;28;20444;-80
2022/04/24 12:18:23;;;;;;;7.40;6.90;;;22.50;44.10;;;;;;5035948;28;20510;-81
2022/04/24 12:20:50;;;;;;;8.27;7.67;;;23.60;42.50;;;;;;5062455;28;20476;-81
2022/04/24 12:23:26;;;;;;;9.67;8.97;;;24.00;41.70;;;;;;5045239;28;20551;-81
2022/04/24 12:26:12;;;;;;;9.67;8.93;;;24.00;40.50;;;;;;5044412;28;20457;-86
2022/04/24 12:28:41;;;;;;;8.50;7.90;;;23.80;40.60;;;;;;5057902;28;20452;-80
2022/04/24 12:31:19;;;;;;;8.23;7.60;;;23.20;41.20;;;;;;5043200;28;20495;-81
2022/04/24 12:33:48;;;;;;;8.90;7.90;;;22.70;42.40;;;;;;5069303;28;20432;-81
2022/04/24 12:36:17;;;;;;;8.40;7.70;;;22.10;42.90;;;;;;5063523;28;20449;-80
2022/04/24 12:39:08;;;;;;;8.20;7.60;;;21.70;43.60;;;;;;5061640;28;20462;-80
2022/04/24 12:41:38;;;;;;;8.07;7.47;;;21.50;44.20;;;;;;5050918;28;20550;-80
2022/04/24 12:44:06;;;;;;;9.00;8.20;;;21.40;44.20;;;;;;5056198;28;20558;-80
2022/04/24 12:46:35;;;;;;;7.53;6.93;;;21.60;44.40;;;;;;5063444;28;20471;-81
2022/04/24 12:49:03;;;;;;;6.97;6.47;;;22.20;43.80;;;;;;5073801;28;20468;-81
2022/04/24 12:51:30;;;;;;;8.00;7.30;;;22.80;42.70;;;;;;5055634;28;20439;-80
2022/04/24 12:53:58;;;;;;;6.70;6.20;;;23.90;41.20;;;;;;5061517;28;20466;-81
2022/04/24 12:56:25;;;;;;;7.77;7.13;;;24.00;40.20;;;;;;5061067;28;20444;-79
2022/04/24 12:58:52;;;;;;;7.57;7.00;;;23.80;40.30;;;;;;5062552;28;20447;-80
2022/04/24 13:01:21;;;;;;;7.20;6.70;;;23.70;40.90;;;;;;5056860;28;20468;-80
2022/04/24 13:03:48;;;;;;;7.00;6.40;;;23.20;40.20;;;;;;5057409;28;20570;-79